Time;durP1;ratioP1;P1;durP2;ratioP2;P2;SDS_P1;SDS_P2;PMS_P1;PMS_P2;Temp;Humidity;BMP_temperature;BMP_pressure;BME280_temperature;BME280_humidity;BME280_pressure;Samples;Min_cycle;Max_cycle;Signal;HPM_P1;HPM_P2
2024/01/14 00:02:18;;;;;;;12.77;6.70;;;;;;;;;;10370867;28;20181;-69
2024/01/14 00:07:19;;;;;;;10.90;7.20;;;;;;;;;;10373121;28;20898;-69
2024/01/14 00:12:19;;;;;;;10.37;7.10;;;;;;;;;;10373182;28;20182;-69
2024/01/14 00:17:19;;;;;;;10.00;6.87;;;;;;;;;;10373252;28;20297;-68
2024/01/14 00:22:19;;;;;;;10.80;7.63;;;;;;;;;;10370044;28;20682;-69
2024/01/14 00:27:19;;;;;;;9.40;7.70;;;;;;;;;;10372369;28;20217;-69
2024/01/14 00:32:21;;;;;;;9.93;7.13;;;;;;;;;;10372114;28;20177;-68
2024/01/14 00:37:23;;;;;;;11.63;6.27;;;;;;;;;;10369449;28;20209;-69
2024/01/14 00:42:23;;;;;;;9.70;6.83;;;;;;;;;;10372408;28;20589;-69
2024/01/14 00:47:23;;;;;;;8.37;5.90;;;;;;;;;;10371725;28;20213;-69
2024/01/14 00:52:24;;;;;;;8.33;5.60;;;;;;;;;;10371965;28;20644;-69
2024/01/14 00:57:24;;;;;;;9.00;6.50;;;;;;;;;;10368360;28;20204;-69
2024/01/14 01:02:24;;;;;;;7.93;6.10;;;;;;;;;;10371311;28;20209;-69
2024/01/14 01:07:24;;;;;;;8.33;5.90;;;;;;;;;;10370804;28;20618;-69
2024/01/14 01:12:24;;;;;;;6.97;4.77;;;;;;;;;;10371157;28;20204;-69
2024/01/14 01:17:24;;;;;;;9.20;6.30;;;;;;;;;;10367513;28;20325;-69
2024/01/14 01:22:25;;;;;;;7.57;5.07;;;;;;;;;;10370690;28;20440;-69
2024/01/14 01:27:25;;;;;;;6.97;5.53;;;;;;;;;;10370293;28;20300;-69
2024/01/14 01:32:25;;;;;;;9.40;6.40;;;;;;;;;;10370294;28;20669;-69
2024/01/14 01:37:26;;;;;;;8.77;5.57;;;;;;;;;;10367268;28;20279;-69
2024/01/14 01:42:26;;;;;;;7.63;6.00;;;;;;;;;;10369156;28;20197;-69
2024/01/14 01:47:26;;;;;;;8.10;5.23;;;;;;;;;;10369221;28;20216;-69
2024/01/14 01:52:27;;;;;;;9.30;7.57;;;;;;;;;;10369243;28;20193;-69
2024/01/14 01:57:27;;;;;;;7.93;5.50;;;;;;;;;;10366198;28;20213;-69
2024/01/14 02:02:27;;;;;;;10.07;7.30;;;;;;;;;;10368606;28;20194;-69
2024/01/14 02:07:28;;;;;;;12.40;6.60;;;;;;;;;;10367814;28;20475;-69
2024/01/14 02:12:28;;;;;;;9.90;7.00;;;;;;;;;;10365965;28;20823;-69
2024/01/14 02:17:28;;;;;;;8.87;6.43;;;;;;;;;;10368129;28;20296;-68
2024/01/14 02:22:30;;;;;;;10.33;7.97;;;;;;;;;;10368400;28;20189;-68
2024/01/14 02:27:31;;;;;;;11.47;7.10;;;;;;;;;;10366967;28;20239;-69
2024/01/14 02:32:31;;;;;;;10.37;6.77;;;;;;;;;;10365044;28;20225;-68
2024/01/14 02:37:32;;;;;;;9.70;7.90;;;;;;;;;;10368092;28;20220;-68
2024/01/14 02:42:32;;;;;;;12.47;7.83;;;;;;;;;;10367819;28;20269;-68
2024/01/14 02:47:32;;;;;;;9.67;6.93;;;;;;;;;;10367455;28;20216;-68
2024/01/14 02:52:32;;;;;;;11.03;8.00;;;;;;;;;;10364307;28;20193;-69
2024/01/14 02:57:33;;;;;;;8.70;6.27;;;;;;;;;;10373462;28;20579;-68
2024/01/14 03:02:33;;;;;;;9.37;7.67;;;;;;;;;;10374998;28;20189;-69
2024/01/14 03:07:33;;;;;;;10.00;6.43;;;;;;;;;;10375484;28;20718;-68
2024/01/14 03:12:33;;;;;;;9.30;6.70;;;;;;;;;;10372812;28;20585;-69
2024/01/14 03:17:33;;;;;;;9.70;8.47;;;;;;;;;;10375430;28;20221;-68
2024/01/14 03:22:34;;;;;;;8.73;6.70;;;;;;;;;;10375286;28;20189;-69
2024/01/14 03:27:34;;;;;;;5.00;4.07;;;;;;;;;;10374826;28;20213;-69
2024/01/14 03:32:34;;;;;;;8.37;6.80;;;;;;;;;;10371660;28;20243;-69
2024/01/14 03:37:34;;;;;;;11.47;8.10;;;;;;;;;;10374648;28;20960;-68
2024/01/14 03:42:34;;;;;;;10.63;7.30;;;;;;;;;;10374692;28;20236;-68
2024/01/14 03:47:35;;;;;;;10.87;8.00;;;;;;;;;;10371417;28;20229;-68
2024/01/14 03:52:35;;;;;;;11.43;7.93;;;;;;;;;;10374362;28;20312;-68
2024/01/14 03:57:35;;;;;;;12.57;7.63;;;;;;;;;;10373927;28;20241;-69
2024/01/14 04:02:35;;;;;;;9.87;7.53;;;;;;;;;;10373949;28;20593;-69
2024/01/14 04:07:35;;;;;;;12.10;8.07;;;;;;;;;;10369951;28;20246;-68
2024/01/14 04:12:38;;;;;;;12.90;8.10;;;;;;;;;;10373176;28;20535;-68
2024/01/14 04:17:39;;;;;;;12.47;7.87;;;;;;;;;;10373459;28;20209;-68
2024/01/14 04:22:39;;;;;;;10.53;6.23;;;;;;;;;;10372822;28;20235;-68
2024/01/14 04:27:39;;;;;;;12.17;7.57;;;;;;;;;;10370337;28;20212;-68
2024/01/14 04:32:39;;;;;;;12.00;8.33;;;;;;;;;;10372470;28;20188;-68
2024/01/14 04:37:39;;;;;;;13.37;8.10;;;;;;;;;;10372379;28;20215;-68
2024/01/14 04:42:40;;;;;;;12.10;7.83;;;;;;;;;;10372555;28;20543;-68
2024/01/14 04:47:40;;;;;;;12.70;8.50;;;;;;;;;;10369198;28;20205;-68
2024/01/14 04:52:40;;;;;;;14.63;8.80;;;;;;;;;;10372005;28;20248;-68
2024/01/14 04:57:40;;;;;;;14.40;11.33;;;;;;;;;;10371164;28;20201;-68
2024/01/14 05:02:40;;;;;;;13.30;7.63;;;;;;;;;;10371585;28;20189;-68
2024/01/14 05:07:41;;;;;;;15.00;9.93;;;;;;;;;;10368552;28;20225;-68
2024/01/14 05:12:41;;;;;;;12.07;7.03;;;;;;;;;;10371268;28;20475;-68
2024/01/14 05:17:41;;;;;;;14.93;9.20;;;;;;;;;;10370796;28;20472;-68
2024/01/14 05:22:41;;;;;;;13.40;9.50;;;;;;;;;;10370300;28;20181;-68
2024/01/14 05:27:41;;;;;;;14.53;9.43;;;;;;;;;;10370571;28;20205;-68
2024/01/14 05:32:42;;;;;;;14.77;8.60;;;;;;;;;;10370336;28;20931;-68
2024/01/14 05:37:42;;;;;;;16.23;11.20;;;;;;;;;;10370130;28;20432;-68
2024/01/14 05:42:42;;;;;;;12.63;8.40;;;;;;;;;;10367339;28;20821;-67
2024/01/14 05:47:42;;;;;;;16.17;9.77;;;;;;;;;;10369731;28;20649;-68
2024/01/14 05:52:43;;;;;;;13.40;7.50;;;;;;;;;;10369528;28;20292;-68
2024/01/14 05:57:43;;;;;;;12.40;7.67;;;;;;;;;;10369428;28;20205;-68
2024/01/14 06:02:43;;;;;;;13.53;8.40;;;;;;;;;;10366780;28;20604;-68
2024/01/14 06:07:43;;;;;;;16.00;9.30;;;;;;;;;;10368818;28;20996;-68
2024/01/14 06:12:43;;;;;;;12.63;8.63;;;;;;;;;;10368993;28;20573;-68
2024/01/14 06:17:43;;;;;;;14.70;9.27;;;;;;;;;;10368493;28;20236;-68
2024/01/14 06:22:44;;;;;;;14.40;9.60;;;;;;;;;;10366920;28;20186;-68
2024/01/14 06:27:44;;;;;;;13.97;8.37;;;;;;;;;;10365579;28;20300;-68
2024/01/14 06:32:44;;;;;;;16.13;10.67;;;;;;;;;;10368229;28;20197;-68
2024/01/14 06:37:44;;;;;;;14.30;9.13;;;;;;;;;;10367972;28;20204;-68
2024/01/14 06:42:44;;;;;;;16.43;8.83;;;;;;;;;;10365791;28;20181;-68
2024/01/14 06:47:45;;;;;;;11.95;8.15;;;;;;;;;;10367900;28;20691;-68
2024/01/14 06:52:45;;;;;;;19.47;9.40;;;;;;;;;;10367711;28;20189;-68
2024/01/14 06:57:45;;;;;;;16.80;10.30;;;;;;;;;;10365205;28;20259;-68
2024/01/14 07:02:46;;;;;;;18.07;11.03;;;;;;;;;;10367487;28;20440;-68
2024/01/14 07:07:46;;;;;;;15.53;9.67;;;;;;;;;;10367253;28;20243;-68
2024/01/14 07:12:47;;;;;;;16.40;9.60;;;;;;;;;;10367438;28;20341;-68
2024/01/14 07:17:47;;;;;;;18.60;8.80;;;;;;;;;;10364390;28;20212;-68
2024/01/14 07:22:47;;;;;;;15.23;9.03;;;;;;;;;;10367430;28;20221;-68
2024/01/14 07:27:48;;;;;;;16.13;7.33;;;;;;;;;;10366804;28;20296;-68
2024/01/14 07:32:48;;;;;;;13.77;8.00;;;;;;;;;;10367025;28;20200;-68
2024/01/14 07:37:48;;;;;;;14.93;9.03;;;;;;;;;;10364233;28;20456;-68
2024/01/14 07:42:48;;;;;;;14.43;9.17;;;;;;;;;;10370809;28;20444;-68
2024/01/14 07:47:48;;;;;;;13.57;7.97;;;;;;;;;;10374344;28;20251;-68
2024/01/14 07:52:49;;;;;;;14.50;8.60;;;;;;;;;;10374195;28;20671;-68
2024/01/14 07:57:49;;;;;;;17.10;10.17;;;;;;;;;;10371402;28;20205;-68
2024/01/14 08:02:49;;;;;;;16.93;9.27;;;;;;;;;;10373888;28;20570;-67
2024/01/14 08:07:49;;;;;;;14.47;7.77;;;;;;;;;;10373276;28;20298;-68
2024/01/14 08:12:49;;;;;;;15.53;9.27;;;;;;;;;;10372726;28;20448;-68
2024/01/14 08:17:50;;;;;;;13.30;8.40;;;;;;;;;;10371426;28;20224;-68
2024/01/14 08:22:51;;;;;;;12.40;7.73;;;;;;;;;;10372942;28;20193;-68
2024/01/14 08:27:52;;;;;;;13.30;8.00;;;;;;;;;;10372949;28;20467;-68
2024/01/14 08:32:52;;;;;;;13.73;8.50;;;;;;;;;;10369833;28;20654;-68
2024/01/14 08:37:52;;;;;;;11.30;7.37;;;;;;;;;;10372267;28;20213;-68
2024/01/14 08:42:52;;;;;;;14.30;7.80;;;;;;;;;;10372138;28;20938;-68
2024/01/14 08:47:52;;;;;;;14.43;8.83;;;;;;;;;;10371693;28;20225;-68
2024/01/14 08:52:53;;;;;;;11.57;7.83;;;;;;;;;;10368914;28;20185;-69
2024/01/14 08:57:53;;;;;;;10.63;7.53;;;;;;;;;;10371362;28;20202;-68
2024/01/14 09:02:53;;;;;;;14.47;9.37;;;;;;;;;;10371906;28;20181;-68
2024/01/14 09:07:54;;;;;;;13.60;8.00;;;;;;;;;;10370994;28;20244;-67
2024/01/14 09:12:54;;;;;;;14.97;9.00;;;;;;;;;;10369228;28;20185;-68
2024/01/14 09:17:54;;;;;;;15.87;11.33;;;;;;;;;;10371851;28;20201;-67
2024/01/14 09:22:55;;;;;;;17.67;11.17;;;;;;;;;;10371701;28;20185;-68
2024/01/14 09:27:55;;;;;;;14.97;9.73;;;;;;;;;;10371029;28;20580;-68
2024/01/14 09:32:55;;;;;;;20.77;11.50;;;;;;;;;;10368578;28;20292;-68
2024/01/14 09:37:55;;;;;;;19.17;12.67;;;;;;;;;;10371437;28;20210;-67
2024/01/14 09:42:57;;;;;;;20.83;11.00;;;;;;;;;;10371024;28;20212;-68
2024/01/14 09:47:58;;;;;;;20.30;10.80;;;;;;;;;;10368769;28;20231;-68
2024/01/14 09:52:58;;;;;;;16.03;9.63;;;;;;;;;;10369125;28;20199;-68
2024/01/14 09:57:59;;;;;;;17.20;9.50;;;;;;;;;;10369234;28;20205;-68
2024/01/14 10:02:59;;;;;;;13.60;8.17;;;;;;;;;;10369296;28;20196;-68
2024/01/14 10:07:59;;;;;;;16.88;8.48;;;;;;;;;;10365398;28;20325;-68
2024/01/14 10:13:01;;;;;;;16.17;9.90;;;;;;;;;;10368937;28;20528;-69
2024/01/14 10:18:02;;;;;;;12.70;8.03;;;;;;;;;;10368663;28;20717;-69
2024/01/14 10:23:03;;;;;;;12.17;7.60;;;;;;;;;;10367115;28;20196;-68
2024/01/14 10:28:03;;;;;;;16.47;8.97;;;;;;;;;;10366227;28;20483;-69
2024/01/14 10:33:06;;;;;;;13.67;8.93;;;;;;;;;;10370084;28;20862;-68
2024/01/14 10:38:06;;;;;;;14.77;8.73;;;;;;;;;;10368278;28;20769;-67
2024/01/14 10:43:08;;;;;;;14.60;9.43;;;;;;;;;;10368072;28;20256;-67
2024/01/14 10:48:11;;;;;;;17.10;10.20;;;;;;;;;;10365442;28;20213;-68
2024/01/14 10:53:15;;;;;;;17.07;8.90;;;;;;;;;;10368153;28;20196;-67
2024/01/14 10:58:29;;;;;;;15.57;9.90;;;;;;;;;;10365648;28;20213;-67
2024/01/14 11:03:29;;;;;;;13.80;8.20;;;;;;;;;;10368085;28;20271;-68
2024/01/14 11:08:30;;;;;;;15.80;9.57;;;;;;;;;;10365273;28;20328;-68
2024/01/14 11:13:36;;;;;;;14.23;7.47;;;;;;;;;;10367428;28;20255;-68
2024/01/14 11:18:39;;;;;;;15.20;8.43;;;;;;;;;;10372800;28;20212;-68
2024/01/14 11:23:40;;;;;;;13.73;7.57;;;;;;;;;;10373049;28;20196;-68
2024/01/14 11:28:44;;;;;;;11.60;7.20;;;;;;;;;;10375117;28;20217;-68
2024/01/14 11:33:49;;;;;;;14.27;6.97;;;;;;;;;;10372916;28;20197;-68
2024/01/14 11:38:49;;;;;;;12.83;7.63;;;;;;;;;;10375054;28;20705;-67
2024/01/14 11:43:53;;;;;;;11.93;6.90;;;;;;;;;;10372400;28;20197;-67
2024/01/14 11:48:53;;;;;;;12.70;6.70;;;;;;;;;;10374367;28;20221;-66
2024/01/14 11:53:54;;;;;;;10.00;6.67;;;;;;;;;;10374350;28;20572;-67
2024/01/14 11:58:54;;;;;;;12.83;7.20;;;;;;;;;;10374186;28;20292;-67
2024/01/14 12:04:03;;;;;;;12.27;7.37;;;;;;;;;;10371484;28;20193;-68
2024/01/14 12:09:04;;;;;;;12.13;6.57;;;;;;;;;;10371997;28;20241;-68
2024/01/14 12:14:04;;;;;;;11.90;6.23;;;;;;;;;;10374476;28;20200;-68
2024/01/14 12:19:12;;;;;;;11.57;7.80;;;;;;;;;;10373438;28;20214;-68
2024/01/14 12:24:13;;;;;;;12.40;6.90;;;;;;;;;;10370409;28;20296;-68
2024/01/14 12:29:13;;;;;;;15.67;8.87;;;;;;;;;;10372129;28;20227;-68
2024/01/14 12:34:14;;;;;;;16.20;7.27;;;;;;;;;;10372324;28;20189;-68
2024/01/14 12:39:15;;;;;;;12.07;7.20;;;;;;;;;;10370438;28;20637;-67
2024/01/14 12:44:15;;;;;;;10.07;6.20;;;;;;;;;;10370017;28;20722;-68
2024/01/14 12:49:15;;;;;;;15.17;7.00;;;;;;;;;;10372064;28;20303;-68
2024/01/14 12:54:18;;;;;;;11.43;6.80;;;;;;;;;;10371843;28;20215;-68
2024/01/14 12:59:18;;;;;;;11.80;6.87;;;;;;;;;;10368957;28;20874;-68
2024/01/14 13:04:18;;;;;;;13.90;7.43;;;;;;;;;;10371719;28;20280;-68
2024/01/14 13:09:20;;;;;;;11.77;6.50;;;;;;;;;;10369231;28;20793;-67
2024/01/14 13:14:20;;;;;;;11.73;8.50;;;;;;;;;;10371217;28;20239;-67
2024/01/14 13:19:20;;;;;;;13.57;9.00;;;;;;;;;;10368377;28;20305;-67
2024/01/14 13:24:21;;;;;;;15.67;8.97;;;;;;;;;;10370799;28;20192;-68
2024/01/14 13:29:21;;;;;;;16.30;9.23;;;;;;;;;;10370389;28;20217;-68
2024/01/14 13:34:22;;;;;;;16.93;9.40;;;;;;;;;;10370638;28;20605;-67
2024/01/14 13:39:22;;;;;;;13.97;8.87;;;;;;;;;;10368329;28;20216;-68
2024/01/14 13:44:23;;;;;;;14.47;9.07;;;;;;;;;;10370128;28;20204;-67
2024/01/14 13:49:26;;;;;;;15.37;9.50;;;;;;;;;;10370203;28;20683;-68
2024/01/14 13:54:26;;;;;;;19.57;11.97;;;;;;;;;;10368316;28;20221;-68
2024/01/14 13:59:28;;;;;;;15.77;9.30;;;;;;;;;;10369540;28;20762;-68
2024/01/14 14:04:28;;;;;;;21.27;11.27;;;;;;;;;;10369399;28;20201;-68
2024/01/14 14:09:28;;;;;;;16.27;8.43;;;;;;;;;;10369044;28;20241;-68
2024/01/14 14:14:28;;;;;;;16.37;9.23;;;;;;;;;;10366567;28;20188;-68
2024/01/14 14:19:28;;;;;;;16.03;8.80;;;;;;;;;;10368654;28;20578;-68
2024/01/14 14:24:31;;;;;;;15.60;9.47;;;;;;;;;;10368619;28;20190;-68
2024/01/14 14:29:31;;;;;;;12.90;7.83;;;;;;;;;;10368369;28;20742;-67
2024/01/14 14:34:31;;;;;;;16.50;9.67;;;;;;;;;;10366481;28;20246;-68
2024/01/14 14:39:32;;;;;;;19.33;9.37;;;;;;;;;;10368572;28;20436;-68
2024/01/14 14:44:32;;;;;;;13.07;7.17;;;;;;;;;;10367737;28;20660;-68
2024/01/14 14:49:32;;;;;;;11.93;7.43;;;;;;;;;;10365360;28;20248;-68
2024/01/14 14:54:32;;;;;;;18.00;9.23;;;;;;;;;;10366801;28;20212;-68
2024/01/14 14:59:32;;;;;;;20.50;11.53;;;;;;;;;;10367648;28;20197;-67
2024/01/14 15:04:32;;;;;;;55.17;20.50;;;;;;;;;;10367525;28;20246;-68
2024/01/14 15:09:33;;;;;;;14.77;9.97;;;;;;;;;;10364438;28;20228;-68
2024/01/14 15:14:33;;;;;;;16.97;10.83;;;;;;;;;;10367379;28;20286;-68
2024/01/14 15:19:33;;;;;;;15.07;8.50;;;;;;;;;;10367222;28;20664;-68
2024/01/14 15:24:33;;;;;;;13.93;7.83;;;;;;;;;;10367189;28;20201;-68
2024/01/14 15:29:34;;;;;;;13.87;7.63;;;;;;;;;;10364412;28;20216;-68
2024/01/14 15:34:34;;;;;;;10.13;6.47;;;;;;;;;;10367132;28;20448;-68
2024/01/14 15:39:34;;;;;;;17.63;9.40;;;;;;;;;;10366531;28;20205;-68
2024/01/14 15:44:34;;;;;;;18.87;9.40;;;;;;;;;;10366817;28;20505;-68
2024/01/14 15:49:35;;;;;;;16.77;10.90;;;;;;;;;;10364159;28;20213;-67
2024/01/14 15:54:35;;;;;;;13.40;7.83;;;;;;;;;;10366827;28;20186;-68
2024/01/14 15:59:35;;;;;;;15.50;8.70;;;;;;;;;;10366323;28;20267;-68
2024/01/14 16:04:35;;;;;;;11.93;7.13;;;;;;;;;;10367577;28;20474;-68
2024/01/14 16:09:36;;;;;;;12.63;7.17;;;;;;;;;;10373603;28;20236;-68
2024/01/14 16:14:36;;;;;;;12.43;8.90;;;;;;;;;;10373383;28;20189;-68
2024/01/14 16:19:36;;;;;;;13.67;7.60;;;;;;;;;;10373626;28;20177;-68
2024/01/14 16:24:36;;;;;;;13.77;7.17;;;;;;;;;;10370338;28;20213;-68
2024/01/14 16:29:36;;;;;;;10.83;6.53;;;;;;;;;;10372833;28;20691;-68
2024/01/14 16:34:36;;;;;;;12.17;6.67;;;;;;;;;;10372816;28;20648;-68
2024/01/14 16:39:36;;;;;;;7.67;4.87;;;;;;;;;;10372444;28;20219;-67
2024/01/14 16:44:37;;;;;;;10.33;5.93;;;;;;;;;;10369949;28;20204;-68
2024/01/14 16:49:37;;;;;;;8.87;4.20;;;;;;;;;;10371647;28;20213;-68
2024/01/14 16:54:37;;;;;;;8.53;5.10;;;;;;;;;;10372011;28;20440;-68
2024/01/14 16:59:37;;;;;;;10.77;5.83;;;;;;;;;;10371616;28;20204;-68
2024/01/14 17:04:38;;;;;;;9.13;5.60;;;;;;;;;;10368963;28;20193;-69
2024/01/14 17:09:38;;;;;;;11.93;6.90;;;;;;;;;;10371002;28;20229;-68
2024/01/14 17:14:38;;;;;;;11.07;6.23;;;;;;;;;;10370619;28;20192;-68
2024/01/14 17:19:38;;;;;;;12.97;7.50;;;;;;;;;;10371020;28;20578;-68
2024/01/14 17:24:38;;;;;;;13.60;8.37;;;;;;;;;;10367763;28;20204;-68
2024/01/14 17:29:38;;;;;;;11.77;7.07;;;;;;;;;;10370764;28;20225;-68
2024/01/14 17:34:39;;;;;;;13.57;7.57;;;;;;;;;;10370234;28;20663;-68
2024/01/14 17:39:39;;;;;;;8.63;5.70;;;;;;;;;;10367513;28;20212;-68
2024/01/14 17:44:39;;;;;;;13.47;8.00;;;;;;;;;;10369949;28;20197;-68
2024/01/14 17:49:39;;;;;;;13.50;7.20;;;;;;;;;;10369680;28;20221;-68
2024/01/14 17:54:39;;;;;;;15.20;8.27;;;;;;;;;;10369793;28;20185;-68
2024/01/14 17:59:40;;;;;;;13.17;6.90;;;;;;;;;;10367177;28;20192;-68
2024/01/14 18:04:40;;;;;;;9.43;5.27;;;;;;;;;;10369019;28;20553;-68
2024/01/14 18:09:40;;;;;;;11.47;6.87;;;;;;;;;;10369120;28;20604;-68
2024/01/14 18:14:41;;;;;;;12.67;7.30;;;;;;;;;;10368827;28;20790;-68
2024/01/14 18:19:41;;;;;;;12.35;6.55;;;;;;;;;;10365964;28;20570;-68
2024/01/14 18:24:41;;;;;;;13.50;8.83;;;;;;;;;;10368304;28;20202;-68
2024/01/14 18:29:41;;;;;;;29.60;14.17;;;;;;;;;;10367670;28;20220;-68
2024/01/14 18:34:42;;;;;;;15.37;7.17;;;;;;;;;;10368173;28;20181;-68
2024/01/14 18:39:42;;;;;;;11.80;5.93;;;;;;;;;;10365490;28;20211;-68
2024/01/14 18:44:43;;;;;;;11.40;6.30;;;;;;;;;;10367578;28;20186;-69
2024/01/14 18:49:43;;;;;;;9.40;5.43;;;;;;;;;;10368086;28;20213;-68
2024/01/14 18:54:43;;;;;;;11.77;6.50;;;;;;;;;;10367370;28;20236;-68
2024/01/14 18:59:43;;;;;;;12.70;7.60;;;;;;;;;;10365114;28;20190;-68
2024/01/14 19:04:43;;;;;;;14.73;7.53;;;;;;;;;;10367031;28;20189;-68
2024/01/14 19:09:44;;;;;;;13.57;7.40;;;;;;;;;;10367323;28;20502;-68
2024/01/14 19:14:46;;;;;;;15.67;7.63;;;;;;;;;;10361808;28;20204;-68
2024/01/14 19:19:46;;;;;;;12.33;7.30;;;;;;;;;;10367143;28;21029;-68
2024/01/14 19:24:46;;;;;;;11.77;6.87;;;;;;;;;;10367370;28;20355;-68
2024/01/14 19:29:46;;;;;;;10.10;5.07;;;;;;;;;;10366745;28;20741;-67
2024/01/14 19:34:47;;;;;;;11.00;6.83;;;;;;;;;;10364525;28;20197;-68
2024/01/14 19:39:53;;;;;;;13.00;6.40;;;;;;;;;;10372693;28;20197;-67
2024/01/14 19:44:53;;;;;;;12.33;7.17;;;;;;;;;;10374677;28;20209;-67
2024/01/14 19:49:53;;;;;;;12.30;6.03;;;;;;;;;;10374498;28;20586;-68
2024/01/14 19:54:53;;;;;;;17.53;6.57;;;;;;;;;;10371464;28;20205;-68
2024/01/14 19:59:54;;;;;;;12.50;7.17;;;;;;;;;;10374309;28;20197;-67
2024/01/14 20:04:54;;;;;;;9.50;6.43;;;;;;;;;;10373629;28;20205;-68
2024/01/14 20:09:54;;;;;;;11.50;6.90;;;;;;;;;;10373800;28;20303;-67
2024/01/14 20:14:55;;;;;;;14.03;6.80;;;;;;;;;;10370961;28;20215;-68
2024/01/14 20:19:56;;;;;;;14.00;7.77;;;;;;;;;;10373294;28;20182;-67
2024/01/14 20:24:58;;;;;;;12.33;6.83;;;;;;;;;;10373355;28;20209;-68
2024/01/14 20:29:58;;;;;;;13.33;7.30;;;;;;;;;;10370749;28;20597;-67
2024/01/14 20:34:58;;;;;;;14.07;7.57;;;;;;;;;;10372382;28;20296;-68
2024/01/14 20:39:58;;;;;;;12.47;6.10;;;;;;;;;;10372679;28;20280;-68
2024/01/14 20:44:59;;;;;;;14.63;7.35;;;;;;;;;;10372336;28;20503;-68
2024/01/14 20:49:59;;;;;;;14.67;7.10;;;;;;;;;;10368918;28;20213;-68
2024/01/14 20:54:59;;;;;;;13.33;6.80;;;;;;;;;;10372046;28;20700;-67
2024/01/14 20:59:59;;;;;;;12.80;6.43;;;;;;;;;;10372169;28;20247;-68
2024/01/14 21:04:59;;;;;;;12.30;7.03;;;;;;;;;;10371603;28;20224;-68
2024/01/14 21:10:00;;;;;;;11.20;6.17;;;;;;;;;;10368978;28;20213;-68
2024/01/14 21:15:02;;;;;;;13.20;6.20;;;;;;;;;;10371381;28;20209;-68
2024/01/14 21:20:02;;;;;;;13.50;7.80;;;;;;;;;;10371187;28;20201;-67
2024/01/14 21:25:03;;;;;;;8.77;6.07;;;;;;;;;;10370912;28;20730;-68
2024/01/14 21:30:03;;;;;;;10.13;6.13;;;;;;;;;;10366875;28;20225;-66
2024/01/14 21:35:04;;;;;;;12.57;6.33;;;;;;;;;;10370827;28;20270;-67
2024/01/14 21:40:04;;;;;;;11.03;6.37;;;;;;;;;;10371004;28;20195;-67
2024/01/14 21:45:06;;;;;;;11.17;7.20;;;;;;;;;;10370160;28;20217;-68
2024/01/14 21:50:07;;;;;;;9.13;5.07;;;;;;;;;;10367575;28;20218;-67
2024/01/14 21:55:07;;;;;;;12.83;8.67;;;;;;;;;;10370066;28;20213;-68
2024/01/14 22:00:09;;;;;;;12.63;7.23;;;;;;;;;;10369344;28;20555;-67
2024/01/14 22:05:09;;;;;;;11.47;7.73;;;;;;;;;;10366438;28;20241;-67
2024/01/14 22:10:09;;;;;;;12.23;8.20;;;;;;;;;;10368993;28;20270;-68
2024/01/14 22:15:10;;;;;;;15.50;7.30;;;;;;;;;;10369087;28;20455;-67
2024/01/14 22:20:14;;;;;;;12.13;5.40;;;;;;;;;;10368998;28;20201;-67
2024/01/14 22:25:14;;;;;;;12.23;7.90;;;;;;;;;;10366075;28;20205;-68
2024/01/14 22:30:14;;;;;;;13.23;7.50;;;;;;;;;;10366151;28;20209;-68
2024/01/14 22:35:14;;;;;;;8.47;5.50;;;;;;;;;;10368157;28;20595;-67
2024/01/14 22:40:14;;;;;;;12.00;7.13;;;;;;;;;;10368525;28;20988;-67
2024/01/14 22:45:15;;;;;;;13.03;7.57;;;;;;;;;;10365292;28;20213;-67
2024/01/14 22:50:15;;;;;;;14.40;6.87;;;;;;;;;;10367760;28;20213;-68
2024/01/14 22:55:15;;;;;;;10.30;6.40;;;;;;;;;;10367595;28;20691;-68
2024/01/14 23:00:24;;;;;;;10.70;6.27;;;;;;;;;;10367616;28;20185;-68
2024/01/14 23:05:24;;;;;;;11.33;4.40;;;;;;;;;;10364837;28;20482;-66
2024/01/14 23:10:24;;;;;;;13.53;7.40;;;;;;;;;;10367485;28;20683;-69
2024/01/14 23:15:26;;;;;;;10.50;6.37;;;;;;;;;;10374578;28;20229;-68
2024/01/14 23:20:26;;;;;;;12.37;7.27;;;;;;;;;;10375745;28;20644;-68
2024/01/14 23:25:26;;;;;;;13.60;7.07;;;;;;;;;;10372793;28;20755;-68
2024/01/14 23:30:26;;;;;;;15.63;8.07;;;;;;;;;;10375473;28;20702;-68
2024/01/14 23:35:26;;;;;;;11.30;6.57;;;;;;;;;;10375086;28;20233;-67
2024/01/14 23:40:27;;;;;;;13.80;6.57;;;;;;;;;;10372497;28;20201;-68
2024/01/14 23:45:27;;;;;;;14.30;6.13;;;;;;;;;;10374952;28;20232;-68
2024/01/14 23:50:27;;;;;;;10.53;5.73;;;;;;;;;;10374697;28;20471;-68
2024/01/14 23:55:27;;;;;;;11.47;6.43;;;;;;;;;;10375632;28;20472;-68
